sensor_id;sensor_type;location;lat;lon;timestamp;P1;durP1;ratioP1;P2;durP2;ratioP2
61096;SDS011;46977;50.936;6.908;2023-06-26T00:02:04;2.60;;;2.42;;
61096;SDS011;46977;50.936;6.908;2023-06-26T00:05:08;2.13;;;2.03;;
61096;SDS011;46977;50.936;6.908;2023-06-26T00:08:10;2.33;;;2.22;;
61096;SDS011;46977;50.936;6.908;2023-06-26T00:11:13;2.95;;;2.45;;
61096;SDS011;46977;50.936;6.908;2023-06-26T00:14:15;2.20;;;2.10;;
61096;SDS011;46977;50.936;6.908;2023-06-26T00:17:17;2.30;;;2.10;;
61096;SDS011;46977;50.936;6.908;2023-06-26T00:20:21;2.42;;;2.33;;
61096;SDS011;46977;50.936;6.908;2023-06-26T00:23:25;2.30;;;2.20;;
61096;SDS011;46977;50.936;6.908;2023-06-26T00:26:29;2.28;;;2.15;;
61096;SDS011;46977;50.936;6.908;2023-06-26T00:29:31;2.35;;;2.15;;
61096;SDS011;46977;50.936;6.908;2023-06-26T00:32:34;2.40;;;2.30;;
61096;SDS011;46977;50.936;6.908;2023-06-26T00:35:39;2.45;;;2.25;;
61096;SDS011;46977;50.936;6.908;2023-06-26T00:38:41;2.83;;;2.28;;
61096;SDS011;46977;50.936;6.908;2023-06-26T00:41:44;2.30;;;2.20;;
61096;SDS011;46977;50.936;6.908;2023-06-26T00:44:46;2.67;;;2.45;;
61096;SDS011;46977;50.936;6.908;2023-06-26T00:47:48;2.58;;;2.38;;
61096;SDS011;46977;50.936;6.908;2023-06-26T00:50:52;2.50;;;2.30;;
61096;SDS011;46977;50.936;6.908;2023-06-26T00:53:54;3.95;;;2.50;;
61096;SDS011;46977;50.936;6.908;2023-06-26T00:56:57;3.00;;;2.20;;
61096;SDS011;46977;50.936;6.908;2023-06-26T01:00:01;2.78;;;2.58;;
61096;SDS011;46977;50.936;6.908;2023-06-26T01:03:05;2.55;;;2.40;;
61096;SDS011;46977;50.936;6.908;2023-06-26T01:06:09;3.08;;;2.78;;
61096;SDS011;46977;50.936;6.908;2023-06-26T01:09:15;2.90;;;2.70;;
61096;SDS011;46977;50.936;6.908;2023-06-26T01:12:18;2.70;;;2.50;;
61096;SDS011;46977;50.936;6.908;2023-06-26T01:15:23;2.50;;;2.40;;
61096;SDS011;46977;50.936;6.908;2023-06-26T01:18:26;3.00;;;2.80;;
61096;SDS011;46977;50.936;6.908;2023-06-26T01:21:29;3.05;;;2.88;;
61096;SDS011;46977;50.936;6.908;2023-06-26T01:24:35;3.03;;;2.83;;
61096;SDS011;46977;50.936;6.908;2023-06-26T01:27:40;2.45;;;2.35;;
61096;SDS011;46977;50.936;6.908;2023-06-26T01:30:44;3.58;;;3.05;;
61096;SDS011;46977;50.936;6.908;2023-06-26T01:33:47;2.40;;;2.30;;
61096;SDS011;46977;50.936;6.908;2023-06-26T01:36:49;2.63;;;2.45;;
61096;SDS011;46977;50.936;6.908;2023-06-26T01:39:52;2.60;;;2.40;;
61096;SDS011;46977;50.936;6.908;2023-06-26T01:42:56;3.05;;;2.85;;
61096;SDS011;46977;50.936;6.908;2023-06-26T01:45:59;2.80;;;2.70;;
61096;SDS011;46977;50.936;6.908;2023-06-26T01:49:06;3.20;;;2.90;;
61096;SDS011;46977;50.936;6.908;2023-06-26T01:52:14;3.47;;;3.28;;
61096;SDS011;46977;50.936;6.908;2023-06-26T01:55:23;3.13;;;2.92;;
61096;SDS011;46977;50.936;6.908;2023-06-26T01:58:33;3.13;;;2.92;;
61096;SDS011;46977;50.936;6.908;2023-06-26T02:01:36;3.45;;;3.22;;
61096;SDS011;46977;50.936;6.908;2023-06-26T02:04:39;3.30;;;3.10;;
61096;SDS011;46977;50.936;6.908;2023-06-26T02:07:41;3.00;;;2.90;;
61096;SDS011;46977;50.936;6.908;2023-06-26T02:10:44;2.75;;;2.65;;
61096;SDS011;46977;50.936;6.908;2023-06-26T02:13:48;2.88;;;2.60;;
61096;SDS011;46977;50.936;6.908;2023-06-26T02:16:50;3.05;;;2.85;;
61096;SDS011;46977;50.936;6.908;2023-06-26T02:19:52;4.88;;;2.97;;
61096;SDS011;46977;50.936;6.908;2023-06-26T02:22:55;3.00;;;2.80;;
61096;SDS011;46977;50.936;6.908;2023-06-26T02:25:57;3.47;;;3.17;;
61096;SDS011;46977;50.936;6.908;2023-06-26T02:29:00;3.10;;;2.90;;
61096;SDS011;46977;50.936;6.908;2023-06-26T02:32:03;2.90;;;2.70;;
61096;SDS011;46977;50.936;6.908;2023-06-26T02:35:06;2.88;;;2.67;;
61096;SDS011;46977;50.936;6.908;2023-06-26T02:38:09;3.03;;;2.90;;
61096;SDS011;46977;50.936;6.908;2023-06-26T02:41:13;3.08;;;2.88;;
61096;SDS011;46977;50.936;6.908;2023-06-26T02:44:17;2.58;;;2.38;;
61096;SDS011;46977;50.936;6.908;2023-06-26T02:47:19;2.95;;;2.75;;
61096;SDS011;46977;50.936;6.908;2023-06-26T02:50:22;3.10;;;2.90;;
61096;SDS011;46977;50.936;6.908;2023-06-26T02:53:46;3.10;;;2.90;;
61096;SDS011;46977;50.936;6.908;2023-06-26T02:56:49;3.28;;;2.97;;
61096;SDS011;46977;50.936;6.908;2023-06-26T02:59:58;3.60;;;3.30;;
61096;SDS011;46977;50.936;6.908;2023-06-26T03:03:00;2.88;;;2.72;;
61096;SDS011;46977;50.936;6.908;2023-06-26T03:06:03;3.50;;;3.30;;
61096;SDS011;46977;50.936;6.908;2023-06-26T03:09:05;3.40;;;3.10;;
61096;SDS011;46977;50.936;6.908;2023-06-26T03:12:08;2.83;;;2.63;;
61096;SDS011;46977;50.936;6.908;2023-06-26T03:15:12;2.83;;;2.72;;
61096;SDS011;46977;50.936;6.908;2023-06-26T03:18:15;2.60;;;2.50;;
61096;SDS011;46977;50.936;6.908;2023-06-26T03:21:17;3.05;;;2.85;;
61096;SDS011;46977;50.936;6.908;2023-06-26T03:24:20;2.05;;;1.95;;
61096;SDS011;46977;50.936;6.908;2023-06-26T03:27:23;5.20;;;2.50;;
61096;SDS011;46977;50.936;6.908;2023-06-26T03:30:27;2.40;;;2.30;;
61096;SDS011;46977;50.936;6.908;2023-06-26T03:33:32;2.13;;;2.03;;
61096;SDS011;46977;50.936;6.908;2023-06-26T03:36:34;2.30;;;2.20;;
61096;SDS011;46977;50.936;6.908;2023-06-26T03:39:37;6.03;;;2.97;;
61096;SDS011;46977;50.936;6.908;2023-06-26T03:42:40;2.10;;;2.00;;
61096;SDS011;46977;50.936;6.908;2023-06-26T03:45:44;2.42;;;2.17;;
61096;SDS011;46977;50.936;6.908;2023-06-26T03:48:47;2.30;;;2.10;;
61096;SDS011;46977;50.936;6.908;2023-06-26T03:51:49;2.05;;;1.92;;
61096;SDS011;46977;50.936;6.908;2023-06-26T03:54:52;2.45;;;2.25;;
61096;SDS011;46977;50.936;6.908;2023-06-26T03:57:54;2.60;;;2.38;;
61096;SDS011;46977;50.936;6.908;2023-06-26T04:00:58;2.50;;;2.30;;
61096;SDS011;46977;50.936;6.908;2023-06-26T04:04:01;2.13;;;1.92;;
61096;SDS011;46977;50.936;6.908;2023-06-26T04:07:06;2.50;;;2.40;;
61096;SDS011;46977;50.936;6.908;2023-06-26T04:10:08;1.90;;;1.80;;
61096;SDS011;46977;50.936;6.908;2023-06-26T04:13:11;2.38;;;2.00;;
61096;SDS011;46977;50.936;6.908;2023-06-26T04:16:15;2.05;;;1.85;;
61096;SDS011;46977;50.936;6.908;2023-06-26T04:19:17;2.83;;;2.10;;
61096;SDS011;46977;50.936;6.908;2023-06-26T04:22:20;2.35;;;1.75;;
61096;SDS011;46977;50.936;6.908;2023-06-26T04:25:22;1.85;;;1.75;;
61096;SDS011;46977;50.936;6.908;2023-06-26T04:28:24;2.13;;;1.90;;
61096;SDS011;46977;50.936;6.908;2023-06-26T04:31:28;3.05;;;1.98;;
61096;SDS011;46977;50.936;6.908;2023-06-26T04:34:30;3.22;;;1.70;;
61096;SDS011;46977;50.936;6.908;2023-06-26T04:37:37;2.90;;;1.80;;
61096;SDS011;46977;50.936;6.908;2023-06-26T04:40:41;2.22;;;1.77;;
61096;SDS011;46977;50.936;6.908;2023-06-26T04:43:43;2.58;;;1.75;;
61096;SDS011;46977;50.936;6.908;2023-06-26T04:46:47;3.28;;;1.90;;
61096;SDS011;46977;50.936;6.908;2023-06-26T04:49:49;1.88;;;1.67;;
61096;SDS011;46977;50.936;6.908;2023-06-26T04:52:51;2.38;;;1.45;;
61096;SDS011;46977;50.936;6.908;2023-06-26T04:55:54;1.55;;;1.45;;
61096;SDS011;46977;50.936;6.908;2023-06-26T04:58:56;2.50;;;1.55;;
61096;SDS011;46977;50.936;6.908;2023-06-26T05:02:00;2.53;;;1.65;;
61096;SDS011;46977;50.936;6.908;2023-06-26T05:05:02;2.10;;;1.35;;
61096;SDS011;46977;50.936;6.908;2023-06-26T05:08:14;2.03;;;1.58;;
61096;SDS011;46977;50.936;6.908;2023-06-26T05:11:17;2.50;;;1.48;;
61096;SDS011;46977;50.936;6.908;2023-06-26T05:14:19;2.42;;;1.83;;
61096;SDS011;46977;50.936;6.908;2023-06-26T05:17:26;1.90;;;1.80;;
61096;SDS011;46977;50.936;6.908;2023-06-26T05:20:28;2.60;;;1.70;;
61096;SDS011;46977;50.936;6.908;2023-06-26T05:23:31;2.08;;;1.63;;
61096;SDS011;46977;50.936;6.908;2023-06-26T05:26:34;2.22;;;1.55;;
61096;SDS011;46977;50.936;6.908;2023-06-26T05:29:37;1.65;;;1.55;;
61096;SDS011;46977;50.936;6.908;2023-06-26T05:32:41;2.58;;;1.50;;
61096;SDS011;46977;50.936;6.908;2023-06-26T05:35:45;1.80;;;1.70;;
61096;SDS011;46977;50.936;6.908;2023-06-26T05:38:48;3.95;;;1.50;;
61096;SDS011;46977;50.936;6.908;2023-06-26T05:41:52;1.77;;;1.45;;
61096;SDS011;46977;50.936;6.908;2023-06-26T05:44:55;2.50;;;1.58;;
61096;SDS011;46977;50.936;6.908;2023-06-26T05:47:58;3.53;;;1.58;;
61096;SDS011;46977;50.936;6.908;2023-06-26T05:51:01;1.60;;;1.30;;
61096;SDS011;46977;50.936;6.908;2023-06-26T05:54:05;2.65;;;1.70;;
61096;SDS011;46977;50.936;6.908;2023-06-26T05:57:08;2.22;;;1.50;;
61096;SDS011;46977;50.936;6.908;2023-06-26T06:00:11;1.50;;;1.40;;
61096;SDS011;46977;50.936;6.908;2023-06-26T06:03:16;1.58;;;1.35;;
61096;SDS011;46977;50.936;6.908;2023-06-26T06:06:18;1.90;;;1.40;;
61096;SDS011;46977;50.936;6.908;2023-06-26T06:09:20;2.33;;;1.45;;
61096;SDS011;46977;50.936;6.908;2023-06-26T06:12:23;1.73;;;1.33;;
61096;SDS011;46977;50.936;6.908;2023-06-26T06:15:25;1.65;;;1.17;;
61096;SDS011;46977;50.936;6.908;2023-06-26T06:18:32;4.30;;;1.27;;
61096;SDS011;46977;50.936;6.908;2023-06-26T06:21:34;1.40;;;1.30;;
61096;SDS011;46977;50.936;6.908;2023-06-26T06:24:36;2.65;;;1.38;;
61096;SDS011;46977;50.936;6.908;2023-06-26T06:27:39;2.55;;;1.50;;
61096;SDS011;46977;50.936;6.908;2023-06-26T06:30:42;1.88;;;1.30;;
61096;SDS011;46977;50.936;6.908;2023-06-26T06:33:48;1.92;;;1.40;;
61096;SDS011;46977;50.936;6.908;2023-06-26T06:36:50;2.63;;;1.40;;
61096;SDS011;46977;50.936;6.908;2023-06-26T06:39:53;1.70;;;1.33;;
61096;SDS011;46977;50.936;6.908;2023-06-26T06:42:55;3.88;;;1.50;;
61096;SDS011;46977;50.936;6.908;2023-06-26T06:45:58;1.58;;;1.30;;
61096;SDS011;46977;50.936;6.908;2023-06-26T06:49:01;3.70;;;1.50;;
61096;SDS011;46977;50.936;6.908;2023-06-26T06:52:06;2.97;;;1.30;;
61096;SDS011;46977;50.936;6.908;2023-06-26T06:55:08;1.42;;;1.02;;
61096;SDS011;46977;50.936;6.908;2023-06-26T06:58:11;3.35;;;1.35;;
61096;SDS011;46977;50.936;6.908;2023-06-26T07:01:13;1.73;;;1.23;;
61096;SDS011;46977;50.936;6.908;2023-06-26T07:04:17;2.65;;;1.05;;
61096;SDS011;46977;50.936;6.908;2023-06-26T07:07:19;1.65;;;1.27;;
61096;SDS011;46977;50.936;6.908;2023-06-26T07:10:22;1.77;;;1.10;;
61096;SDS011;46977;50.936;6.908;2023-06-26T07:13:24;3.05;;;1.10;;
61096;SDS011;46977;50.936;6.908;2023-06-26T07:16:26;2.47;;;1.00;;
61096;SDS011;46977;50.936;6.908;2023-06-26T07:19:30;1.75;;;1.30;;
61096;SDS011;46977;50.936;6.908;2023-06-26T07:22:33;2.92;;;1.65;;
61096;SDS011;46977;50.936;6.908;2023-06-26T07:25:35;1.48;;;1.13;;
61096;SDS011;46977;50.936;6.908;2023-06-26T07:28:37;2.45;;;1.10;;
61096;SDS011;46977;50.936;6.908;2023-06-26T07:31:40;2.75;;;1.30;;
61096;SDS011;46977;50.936;6.908;2023-06-26T07:34:43;2.15;;;1.00;;
61096;SDS011;46977;50.936;6.908;2023-06-26T07:37:46;1.40;;;1.30;;
61096;SDS011;46977;50.936;6.908;2023-06-26T07:40:48;2.28;;;1.33;;
61096;SDS011;46977;50.936;6.908;2023-06-26T07:43:51;2.05;;;1.00;;
61096;SDS011;46977;50.936;6.908;2023-06-26T07:46:53;2.08;;;1.10;;
61096;SDS011;46977;50.936;6.908;2023-06-26T07:49:57;2.15;;;1.10;;
61096;SDS011;46977;50.936;6.908;2023-06-26T07:52:59;1.65;;;1.00;;
61096;SDS011;46977;50.936;6.908;2023-06-26T07:56:02;1.30;;;1.10;;
61096;SDS011;46977;50.936;6.908;2023-06-26T07:59:04;2.45;;;1.08;;
61096;SDS011;46977;50.936;6.908;2023-06-26T08:02:07;3.20;;;1.20;;
61096;SDS011;46977;50.936;6.908;2023-06-26T08:05:10;2.92;;;1.38;;
61096;SDS011;46977;50.936;6.908;2023-06-26T08:08:13;3.08;;;1.17;;
61096;SDS011;46977;50.936;6.908;2023-06-26T08:11:15;1.65;;;1.05;;
61096;SDS011;46977;50.936;6.908;2023-06-26T08:14:18;2.08;;;1.05;;
61096;SDS011;46977;50.936;6.908;2023-06-26T08:17:20;2.35;;;1.33;;
61096;SDS011;46977;50.936;6.908;2023-06-26T08:20:24;1.50;;;1.17;;
61096;SDS011;46977;50.936;6.908;2023-06-26T08:23:26;2.67;;;1.20;;
61096;SDS011;46977;50.936;6.908;2023-06-26T08:26:28;3.72;;;1.30;;
61096;SDS011;46977;50.936;6.908;2023-06-26T08:29:31;2.80;;;1.60;;
61096;SDS011;46977;50.936;6.908;2023-06-26T08:32:36;2.60;;;1.10;;
61096;SDS011;46977;50.936;6.908;2023-06-26T08:35:40;3.22;;;1.17;;
61096;SDS011;46977;50.936;6.908;2023-06-26T08:38:43;2.25;;;0.90;;
61096;SDS011;46977;50.936;6.908;2023-06-26T08:41:45;2.10;;;1.35;;
61096;SDS011;46977;50.936;6.908;2023-06-26T08:44:47;3.08;;;1.10;;
61096;SDS011;46977;50.936;6.908;2023-06-26T08:48:03;2.17;;;1.38;;
61096;SDS011;46977;50.936;6.908;2023-06-26T08:51:11;2.30;;;1.40;;
61096;SDS011;46977;50.936;6.908;2023-06-26T08:54:14;1.95;;;1.10;;
61096;SDS011;46977;50.936;6.908;2023-06-26T08:57:18;2.33;;;1.35;;
61096;SDS011;46977;50.936;6.908;2023-06-26T09:00:21;2.78;;;1.10;;
61096;SDS011;46977;50.936;6.908;2023-06-26T09:03:23;1.85;;;1.13;;
61096;SDS011;46977;50.936;6.908;2023-06-26T09:06:29;2.08;;;1.15;;
61096;SDS011;46977;50.936;6.908;2023-06-26T09:09:32;3.03;;;1.08;;
61096;SDS011;46977;50.936;6.908;2023-06-26T09:12:34;3.35;;;1.13;;
61096;SDS011;46977;50.936;6.908;2023-06-26T09:15:37;1.98;;;1.27;;
61096;SDS011;46977;50.936;6.908;2023-06-26T09:18:40;3.92;;;1.15;;
61096;SDS011;46977;50.936;6.908;2023-06-26T09:21:46;2.53;;;1.15;;
61096;SDS011;46977;50.936;6.908;2023-06-26T09:24:51;2.78;;;1.15;;
61096;SDS011;46977;50.936;6.908;2023-06-26T09:27:53;2.80;;;1.20;;
61096;SDS011;46977;50.936;6.908;2023-06-26T09:31:00;2.30;;;1.10;;
61096;SDS011;46977;50.936;6.908;2023-06-26T09:34:03;2.58;;;1.08;;
61096;SDS011;46977;50.936;6.908;2023-06-26T09:37:06;3.50;;;1.00;;
61096;SDS011;46977;50.936;6.908;2023-06-26T09:40:09;4.70;;;1.23;;
61096;SDS011;46977;50.936;6.908;2023-06-26T09:43:12;2.13;;;0.90;;
61096;SDS011;46977;50.936;6.908;2023-06-26T09:46:15;2.30;;;0.85;;
61096;SDS011;46977;50.936;6.908;2023-06-26T09:49:18;2.47;;;1.00;;
61096;SDS011;46977;50.936;6.908;2023-06-26T09:52:25;4.05;;;1.25;;
61096;SDS011;46977;50.936;6.908;2023-06-26T09:55:28;6.22;;;1.48;;
61096;SDS011;46977;50.936;6.908;2023-06-26T10:01:36;2.85;;;1.20;;
61096;SDS011;46977;50.936;6.908;2023-06-26T10:04:41;1.92;;;0.90;;
61096;SDS011;46977;50.936;6.908;2023-06-26T10:07:45;1.98;;;1.00;;
61096;SDS011;46977;50.936;6.908;2023-06-26T10:10:48;1.52;;;0.80;;
61096;SDS011;46977;50.936;6.908;2023-06-26T10:13:51;3.70;;;0.70;;
61096;SDS011;46977;50.936;6.908;2023-06-26T10:17:07;1.17;;;0.80;;
61096;SDS011;46977;50.936;6.908;2023-06-26T10:20:11;1.65;;;0.80;;
61096;SDS011;46977;50.936;6.908;2023-06-26T10:23:18;1.30;;;0.90;;
61096;SDS011;46977;50.936;6.908;2023-06-26T10:26:21;0.98;;;0.70;;
61096;SDS011;46977;50.936;6.908;2023-06-26T10:29:24;3.38;;;0.95;;
61096;SDS011;46977;50.936;6.908;2023-06-26T10:32:26;2.05;;;1.05;;
61096;SDS011;46977;50.936;6.908;2023-06-26T10:35:30;2.85;;;0.98;;
61096;SDS011;46977;50.936;6.908;2023-06-26T10:42:09;2.97;;;0.68;;
61096;SDS011;46977;50.936;6.908;2023-06-26T10:45:13;1.98;;;0.70;;
61096;SDS011;46977;50.936;6.908;2023-06-26T10:48:16;1.92;;;0.90;;
61096;SDS011;46977;50.936;6.908;2023-06-26T10:51:21;1.38;;;0.82;;
61096;SDS011;46977;50.936;6.908;2023-06-26T10:54:27;2.25;;;0.95;;
61096;SDS011;46977;50.936;6.908;2023-06-26T10:57:31;2.17;;;0.60;;
61096;SDS011;46977;50.936;6.908;2023-06-26T11:00:34;2.53;;;0.80;;
61096;SDS011;46977;50.936;6.908;2023-06-26T11:03:36;1.17;;;0.80;;
61096;SDS011;46977;50.936;6.908;2023-06-26T11:06:39;1.30;;;0.60;;
61096;SDS011;46977;50.936;6.908;2023-06-26T11:09:53;1.17;;;0.50;;
61096;SDS011;46977;50.936;6.908;2023-06-26T11:12:58;2.67;;;0.82;;
61096;SDS011;46977;50.936;6.908;2023-06-26T11:16:01;1.30;;;0.63;;
61096;SDS011;46977;50.936;6.908;2023-06-26T11:19:03;4.75;;;0.80;;
61096;SDS011;46977;50.936;6.908;2023-06-26T11:22:06;2.60;;;0.98;;
61096;SDS011;46977;50.936;6.908;2023-06-26T11:25:09;2.42;;;0.70;;
61096;SDS011;46977;50.936;6.908;2023-06-26T11:28:13;1.45;;;0.50;;
61096;SDS011;46977;50.936;6.908;2023-06-26T11:31:25;0.98;;;0.60;;
61096;SDS011;46977;50.936;6.908;2023-06-26T11:34:29;0.63;;;0.60;;
61096;SDS011;46977;50.936;6.908;2023-06-26T11:37:32;4.28;;;0.85;;
61096;SDS011;46977;50.936;6.908;2023-06-26T11:40:35;0.85;;;0.60;;
61096;SDS011;46977;50.936;6.908;2023-06-26T11:43:40;1.98;;;1.02;;
61096;SDS011;46977;50.936;6.908;2023-06-26T11:46:43;2.63;;;0.80;;
61096;SDS011;46977;50.936;6.908;2023-06-26T11:49:45;3.53;;;0.70;;
61096;SDS011;46977;50.936;6.908;2023-06-26T11:52:52;2.90;;;0.60;;
61096;SDS011;46977;50.936;6.908;2023-06-26T11:55:55;2.45;;;0.60;;
61096;SDS011;46977;50.936;6.908;2023-06-26T11:59:00;1.15;;;0.50;;
61096;SDS011;46977;50.936;6.908;2023-06-26T12:02:04;2.17;;;0.70;;
61096;SDS011;46977;50.936;6.908;2023-06-26T12:05:07;4.18;;;0.70;;
61096;SDS011;46977;50.936;6.908;2023-06-26T12:08:10;0.55;;;0.43;;
61096;SDS011;46977;50.936;6.908;2023-06-26T12:11:13;2.13;;;0.60;;
61096;SDS011;46977;50.936;6.908;2023-06-26T12:14:17;1.65;;;0.50;;
61096;SDS011;46977;50.936;6.908;2023-06-26T12:17:22;2.20;;;0.70;;
61096;SDS011;46977;50.936;6.908;2023-06-26T12:20:25;1.65;;;0.50;;
61096;SDS011;46977;50.936;6.908;2023-06-26T12:23:32;1.58;;;0.60;;
61096;SDS011;46977;50.936;6.908;2023-06-26T12:26:35;2.03;;;0.52;;
61096;SDS011;46977;50.936;6.908;2023-06-26T12:29:45;2.83;;;0.70;;
61096;SDS011;46977;50.936;6.908;2023-06-26T12:32:51;2.97;;;0.73;;
61096;SDS011;46977;50.936;6.908;2023-06-26T12:35:54;1.92;;;0.70;;
61096;SDS011;46977;50.936;6.908;2023-06-26T12:38:56;2.15;;;0.50;;
61096;SDS011;46977;50.936;6.908;2023-06-26T12:42:00;1.58;;;0.55;;
61096;SDS011;46977;50.936;6.908;2023-06-26T12:45:11;1.65;;;0.68;;
61096;SDS011;46977;50.936;6.908;2023-06-26T12:48:36;1.35;;;0.75;;
61096;SDS011;46977;50.936;6.908;2023-06-26T12:51:40;1.65;;;0.50;;
61096;SDS011;46977;50.936;6.908;2023-06-26T12:54:42;2.35;;;0.68;;
61096;SDS011;46977;50.936;6.908;2023-06-26T12:57:45;3.42;;;0.40;;
61096;SDS011;46977;50.936;6.908;2023-06-26T13:00:49;1.52;;;0.60;;
61096;SDS011;46977;50.936;6.908;2023-06-26T13:03:51;1.60;;;0.50;;
61096;SDS011;46977;50.936;6.908;2023-06-26T13:06:54;1.95;;;0.40;;
61096;SDS011;46977;50.936;6.908;2023-06-26T13:09:57;1.88;;;0.50;;
61096;SDS011;46977;50.936;6.908;2023-06-26T13:12:59;1.10;;;0.40;;
61096;SDS011;46977;50.936;6.908;2023-06-26T13:16:03;2.67;;;0.40;;
61096;SDS011;46977;50.936;6.908;2023-06-26T13:19:07;3.88;;;0.50;;
61096;SDS011;46977;50.936;6.908;2023-06-26T13:22:09;6.57;;;0.80;;
61096;SDS011;46977;50.936;6.908;2023-06-26T13:25:11;5.95;;;0.90;;
61096;SDS011;46977;50.936;6.908;2023-06-26T13:28:14;4.43;;;0.68;;
61096;SDS011;46977;50.936;6.908;2023-06-26T13:31:17;2.55;;;0.85;;
61096;SDS011;46977;50.936;6.908;2023-06-26T13:34:20;2.28;;;0.40;;
61096;SDS011;46977;50.936;6.908;2023-06-26T13:37:24;3.03;;;0.50;;
61096;SDS011;46977;50.936;6.908;2023-06-26T13:40:26;2.97;;;0.50;;
61096;SDS011;46977;50.936;6.908;2023-06-26T13:43:29;1.88;;;0.40;;
61096;SDS011;46977;50.936;6.908;2023-06-26T13:46:33;1.42;;;0.40;;
61096;SDS011;46977;50.936;6.908;2023-06-26T13:49:35;3.20;;;0.57;;
61096;SDS011;46977;50.936;6.908;2023-06-26T13:52:38;1.63;;;0.40;;
61096;SDS011;46977;50.936;6.908;2023-06-26T13:55:41;1.25;;;0.40;;
61096;SDS011;46977;50.936;6.908;2023-06-26T13:58:43;0.98;;;0.35;;
61096;SDS011;46977;50.936;6.908;2023-06-26T14:01:47;1.58;;;0.40;;
61096;SDS011;46977;50.936;6.908;2023-06-26T14:04:49;0.50;;;0.28;;
61096;SDS011;46977;50.936;6.908;2023-06-26T14:07:52;1.27;;;0.30;;
61096;SDS011;46977;50.936;6.908;2023-06-26T14:10:55;1.75;;;0.30;;
61096;SDS011;46977;50.936;6.908;2023-06-26T14:13:58;1.00;;;0.32;;
61096;SDS011;46977;50.936;6.908;2023-06-26T14:17:01;3.28;;;0.40;;
61096;SDS011;46977;50.936;6.908;2023-06-26T14:20:04;3.15;;;0.57;;
61096;SDS011;46977;50.936;6.908;2023-06-26T14:23:09;0.47;;;0.38;;
61096;SDS011;46977;50.936;6.908;2023-06-26T14:26:12;1.05;;;0.35;;
61096;SDS011;46977;50.936;6.908;2023-06-26T14:29:14;2.58;;;0.40;;
61096;SDS011;46977;50.936;6.908;2023-06-26T14:32:20;2.70;;;0.57;;
61096;SDS011;46977;50.936;6.908;2023-06-26T14:35:22;3.28;;;0.45;;
61096;SDS011;46977;50.936;6.908;2023-06-26T14:38:25;0.70;;;0.40;;
61096;SDS011;46977;50.936;6.908;2023-06-26T14:41:27;1.42;;;0.60;;
61096;SDS011;46977;50.936;6.908;2023-06-26T14:44:31;1.42;;;0.50;;
61096;SDS011;46977;50.936;6.908;2023-06-26T14:47:35;0.63;;;0.40;;
61096;SDS011;46977;50.936;6.908;2023-06-26T14:50:37;2.63;;;0.35;;
61096;SDS011;46977;50.936;6.908;2023-06-26T14:53:40;0.90;;;0.57;;
61096;SDS011;46977;50.936;6.908;2023-06-26T14:56:43;2.47;;;0.40;;
61096;SDS011;46977;50.936;6.908;2023-06-26T14:59:47;1.23;;;0.40;;
61096;SDS011;46977;50.936;6.908;2023-06-26T15:02:51;3.13;;;0.60;;
61096;SDS011;46977;50.936;6.908;2023-06-26T15:05:59;1.15;;;0.50;;
61096;SDS011;46977;50.936;6.908;2023-06-26T15:09:01;1.35;;;0.60;;
61096;SDS011;46977;50.936;6.908;2023-06-26T15:12:04;2.70;;;0.50;;
61096;SDS011;46977;50.936;6.908;2023-06-26T15:15:08;2.17;;;0.80;;
61096;SDS011;46977;50.936;6.908;2023-06-26T15:18:12;4.40;;;1.35;;
61096;SDS011;46977;50.936;6.908;2023-06-26T15:21:15;2.40;;;0.60;;
61096;SDS011;46977;50.936;6.908;2023-06-26T15:24:17;4.07;;;0.40;;
61096;SDS011;46977;50.936;6.908;2023-06-26T15:27:19;2.38;;;0.50;;
61096;SDS011;46977;50.936;6.908;2023-06-26T15:30:25;2.25;;;0.50;;
61096;SDS011;46977;50.936;6.908;2023-06-26T15:33:29;1.08;;;0.40;;
61096;SDS011;46977;50.936;6.908;2023-06-26T15:36:31;3.42;;;0.38;;
61096;SDS011;46977;50.936;6.908;2023-06-26T15:39:34;1.25;;;0.40;;
61096;SDS011;46977;50.936;6.908;2023-06-26T15:42:44;1.40;;;0.50;;
61096;SDS011;46977;50.936;6.908;2023-06-26T15:45:47;2.72;;;0.40;;
61096;SDS011;46977;50.936;6.908;2023-06-26T15:48:51;3.42;;;0.52;;
61096;SDS011;46977;50.936;6.908;2023-06-26T15:51:53;2.05;;;0.50;;
61096;SDS011;46977;50.936;6.908;2023-06-26T15:54:55;1.30;;;0.35;;
61096;SDS011;46977;50.936;6.908;2023-06-26T15:57:58;1.52;;;0.40;;
61096;SDS011;46977;50.936;6.908;2023-06-26T16:01:02;0.85;;;0.68;;
61096;SDS011;46977;50.936;6.908;2023-06-26T16:04:06;0.55;;;0.40;;
61096;SDS011;46977;50.936;6.908;2023-06-26T16:07:08;0.63;;;0.40;;
61096;SDS011;46977;50.936;6.908;2023-06-26T16:10:11;1.52;;;0.40;;
61096;SDS011;46977;50.936;6.908;2023-06-26T16:13:13;1.02;;;0.38;;
61096;SDS011;46977;50.936;6.908;2023-06-26T16:16:17;0.75;;;0.38;;
61096;SDS011;46977;50.936;6.908;2023-06-26T16:19:21;2.00;;;0.40;;
61096;SDS011;46977;50.936;6.908;2023-06-26T16:22:23;2.35;;;0.40;;
61096;SDS011;46977;50.936;6.908;2023-06-26T16:25:25;1.95;;;0.28;;
61096;SDS011;46977;50.936;6.908;2023-06-26T16:28:28;1.98;;;0.50;;
61096;SDS011;46977;50.936;6.908;2023-06-26T16:31:30;2.38;;;1.25;;
61096;SDS011;46977;50.936;6.908;2023-06-26T16:34:34;1.65;;;0.40;;
61096;SDS011;46977;50.936;6.908;2023-06-26T16:37:36;0.52;;;0.30;;
61096;SDS011;46977;50.936;6.908;2023-06-26T16:40:38;0.45;;;0.45;;
61096;SDS011;46977;50.936;6.908;2023-06-26T16:43:41;2.08;;;0.50;;
61096;SDS011;46977;50.936;6.908;2023-06-26T16:46:43;0.50;;;0.40;;
61096;SDS011;46977;50.936;6.908;2023-06-26T16:49:47;1.08;;;0.40;;
61096;SDS011;46977;50.936;6.908;2023-06-26T16:52:49;1.35;;;0.70;;
61096;SDS011;46977;50.936;6.908;2023-06-26T16:55:51;1.70;;;0.40;;
61096;SDS011;46977;50.936;6.908;2023-06-26T16:58:54;2.03;;;0.40;;
61096;SDS011;46977;50.936;6.908;2023-06-26T17:01:56;0.80;;;0.50;;
61096;SDS011;46977;50.936;6.908;2023-06-26T17:05:04;2.15;;;0.73;;
61096;SDS011;46977;50.936;6.908;2023-06-26T17:08:07;1.15;;;0.57;;
61096;SDS011;46977;50.936;6.908;2023-06-26T17:11:11;4.13;;;1.60;;
61096;SDS011;46977;50.936;6.908;2023-06-26T17:14:13;0.50;;;0.50;;
61096;SDS011;46977;50.936;6.908;2023-06-26T17:17:15;0.82;;;0.60;;
61096;SDS011;46977;50.936;6.908;2023-06-26T17:20:20;0.55;;;0.30;;
61096;SDS011;46977;50.936;6.908;2023-06-26T17:23:23;0.90;;;0.32;;
61096;SDS011;46977;50.936;6.908;2023-06-26T17:26:25;1.50;;;0.40;;
61096;SDS011;46977;50.936;6.908;2023-06-26T17:29:28;0.85;;;0.30;;
61096;SDS011;46977;50.936;6.908;2023-06-26T17:32:30;0.40;;;0.40;;
61096;SDS011;46977;50.936;6.908;2023-06-26T17:35:34;1.15;;;0.30;;
61096;SDS011;46977;50.936;6.908;2023-06-26T17:38:39;1.70;;;0.30;;
61096;SDS011;46977;50.936;6.908;2023-06-26T17:41:43;0.80;;;0.30;;
61096;SDS011;46977;50.936;6.908;2023-06-26T17:44:45;0.47;;;0.30;;
61096;SDS011;46977;50.936;6.908;2023-06-26T17:47:48;1.58;;;0.40;;
61096;SDS011;46977;50.936;6.908;2023-06-26T17:50:52;0.98;;;0.40;;
61096;SDS011;46977;50.936;6.908;2023-06-26T17:53:54;0.65;;;0.52;;
61096;SDS011;46977;50.936;6.908;2023-06-26T17:56:56;0.45;;;0.28;;
61096;SDS011;46977;50.936;6.908;2023-06-26T18:00:07;0.70;;;0.37;;
61096;SDS011;46977;50.936;6.908;2023-06-26T18:03:14;0.70;;;0.30;;
61096;SDS011;46977;50.936;6.908;2023-06-26T18:06:18;0.45;;;0.38;;
61096;SDS011;46977;50.936;6.908;2023-06-26T18:09:23;0.50;;;0.30;;
61096;SDS011;46977;50.936;6.908;2023-06-26T18:12:25;0.52;;;0.40;;
61096;SDS011;46977;50.936;6.908;2023-06-26T18:15:28;0.60;;;0.40;;
61096;SDS011;46977;50.936;6.908;2023-06-26T18:18:30;1.30;;;0.38;;
61096;SDS011;46977;50.936;6.908;2023-06-26T18:21:34;0.43;;;0.30;;
61096;SDS011;46977;50.936;6.908;2023-06-26T18:24:36;0.52;;;0.35;;
61096;SDS011;46977;50.936;6.908;2023-06-26T18:27:39;0.43;;;0.30;;
61096;SDS011;46977;50.936;6.908;2023-06-26T18:30:41;0.55;;;0.40;;
61096;SDS011;46977;50.936;6.908;2023-06-26T18:33:44;1.17;;;0.30;;